createdAt,value
2017-10-22T00:00:10.150Z,50.37
2017-10-22T00:02:36.884Z,51.33
2017-10-22T00:05:03.529Z,48.10
2017-10-22T00:07:30.187Z,43.60
2017-10-22T00:09:56.834Z,54.73
2017-10-22T00:12:23.497Z,46.60
2017-10-22T00:14:50.219Z,44.80
2017-10-22T00:17:16.882Z,50.07
2017-10-22T00:19:43.524Z,39.83
2017-10-22T00:22:10.194Z,45.17
2017-10-22T00:24:36.838Z,39.50
2017-10-22T00:27:03.514Z,41.10
2017-10-22T00:29:30.156Z,47.67
2017-10-22T00:31:56.863Z,51.50
2017-10-22T00:34:23.529Z,44.37
2017-10-22T00:36:50.176Z,44.50
2017-10-22T00:39:16.874Z,49.00
2017-10-22T00:41:43.596Z,41.47
2017-10-22T00:44:10.248Z,38.67
2017-10-22T00:46:36.894Z,42.67
2017-10-22T00:49:03.579Z,46.50
2017-10-22T00:51:30.304Z,42.03
2017-10-22T00:53:57.068Z,38.67
2017-10-22T00:56:23.817Z,36.43
2017-10-22T00:58:50.462Z,38.53
2017-10-22T01:01:17.214Z,34.43
2017-10-22T01:03:43.875Z,45.90
2017-10-22T01:06:10.621Z,42.60
2017-10-22T01:08:37.258Z,40.77
2017-10-22T01:11:03.917Z,45.50
2017-10-22T01:13:30.729Z,42.37
2017-10-22T01:15:57.416Z,38.30
2017-10-22T01:18:24.081Z,36.43
2017-10-22T01:20:50.781Z,33.93
2017-10-22T01:23:17.495Z,43.53
2017-10-22T01:25:44.132Z,37.00
2017-10-22T01:28:10.794Z,42.03
2017-10-22T01:30:38.395Z,41.53
2017-10-22T01:33:05.113Z,41.70
2017-10-22T01:35:31.752Z,39.60
2017-10-22T01:37:58.513Z,38.63
2017-10-22T01:40:25.217Z,44.50
2017-10-22T01:42:51.920Z,43.53
2017-10-22T01:45:18.584Z,36.53
2017-10-22T01:47:45.282Z,34.80
2017-10-22T01:50:11.940Z,32.77
2017-10-22T01:52:38.580Z,34.80
2017-10-22T01:55:05.272Z,37.30
2017-10-22T01:57:31.925Z,36.83
2017-10-22T01:59:58.584Z,33.30
2017-10-22T02:02:25.224Z,35.43
2017-10-22T02:04:51.880Z,35.13
2017-10-22T02:07:18.541Z,32.23
2017-10-22T02:09:45.249Z,33.37
2017-10-22T02:12:12.029Z,36.30
2017-10-22T02:14:38.679Z,38.07
2017-10-22T02:17:05.346Z,32.53
2017-10-22T02:19:32.001Z,35.93
2017-10-22T02:21:58.664Z,30.43
2017-10-22T02:24:25.305Z,32.93
2017-10-22T02:26:51.973Z,33.60
2017-10-22T02:29:18.612Z,29.50
2017-10-22T02:31:45.352Z,36.90
2017-10-22T02:34:12.021Z,34.70
2017-10-22T02:36:38.668Z,33.77
2017-10-22T02:39:07.334Z,32.33
2017-10-22T02:41:34.014Z,32.43
2017-10-22T02:44:01.548Z,33.37
2017-10-22T02:46:28.193Z,29.27
2017-10-22T02:48:55.715Z,30.33
2017-10-22T02:51:22.357Z,28.43
2017-10-22T02:53:49.046Z,32.00
2017-10-22T02:56:15.808Z,34.13
2017-10-22T02:58:42.501Z,33.70
2017-10-22T03:01:09.243Z,29.50
2017-10-22T03:03:35.898Z,27.23
2017-10-22T03:06:03.299Z,29.83
2017-10-22T03:08:30.048Z,28.33
2017-10-22T03:10:56.710Z,32.90
2017-10-22T03:13:23.411Z,32.00
2017-10-22T03:15:50.092Z,26.40
2017-10-22T03:18:16.736Z,34.40
2017-10-22T03:20:43.476Z,24.00
2017-10-22T03:23:10.113Z,26.90
2017-10-22T03:25:36.756Z,30.93
2017-10-22T03:28:04.477Z,26.53
2017-10-22T03:30:31.927Z,26.63
2017-10-22T03:32:58.633Z,27.37
2017-10-22T03:35:25.281Z,27.90
2017-10-22T03:37:51.941Z,30.43
2017-10-22T03:40:19.418Z,27.73
2017-10-22T03:42:46.129Z,27.00
2017-10-22T03:45:13.233Z,26.30
2017-10-22T03:47:39.897Z,23.30
2017-10-22T03:50:06.596Z,28.13
2017-10-22T03:52:33.316Z,29.23
2017-10-22T03:55:00.385Z,25.60
2017-10-22T03:57:27.024Z,23.27
2017-10-22T03:59:53.681Z,25.43
2017-10-22T04:02:21.756Z,23.70
2017-10-22T04:04:48.521Z,26.77
2017-10-22T04:07:15.161Z,26.93
2017-10-22T04:09:41.818Z,29.50
2017-10-22T04:12:08.569Z,28.13
2017-10-22T04:14:35.225Z,22.87
2017-10-22T04:17:01.993Z,23.20
2017-10-22T04:19:28.917Z,26.70
2017-10-22T04:21:55.576Z,23.80
2017-10-22T04:24:22.220Z,22.73
2017-10-22T04:26:49.419Z,22.33
2017-10-22T04:29:16.148Z,26.30
2017-10-22T04:31:42.804Z,22.10
2017-10-22T04:34:09.449Z,25.57
2017-10-22T04:36:36.210Z,25.00
2017-10-22T04:39:03.784Z,21.90
2017-10-22T04:41:30.445Z,21.77
2017-10-22T04:43:57.109Z,22.87
2017-10-22T04:46:23.857Z,21.97
2017-10-22T04:48:50.528Z,20.00
2017-10-22T04:51:17.328Z,25.00
2017-10-22T04:53:43.993Z,25.80
2017-10-22T04:56:10.632Z,21.40
2017-10-22T04:58:37.297Z,25.53
2017-10-22T05:01:03.936Z,24.10
2017-10-22T05:03:31.554Z,25.93
2017-10-22T05:05:58.265Z,20.87
2017-10-22T05:08:24.917Z,22.83
2017-10-22T05:10:51.581Z,20.83
2017-10-22T05:13:18.321Z,24.60
2017-10-22T05:15:45.086Z,24.20
2017-10-22T05:18:11.733Z,18.07
2017-10-22T05:20:38.449Z,21.07
2017-10-22T05:23:05.084Z,21.17
2017-10-22T05:25:31.773Z,18.67
2017-10-22T05:27:58.477Z,15.93
2017-10-22T05:30:25.185Z,20.87
2017-10-22T05:32:52.458Z,17.17
2017-10-22T05:35:19.190Z,20.53
2017-10-22T05:37:45.857Z,17.10
2017-10-22T05:40:12.497Z,17.80
2017-10-22T05:42:39.164Z,14.13
2017-10-22T05:45:05.813Z,16.20
2017-10-22T05:47:32.490Z,18.87
2017-10-22T05:49:59.138Z,18.47
2017-10-22T05:52:25.786Z,19.40
2017-10-22T05:54:52.515Z,15.30
2017-10-22T05:57:19.161Z,21.47
2017-10-22T05:59:45.821Z,17.57
2017-10-22T06:02:12.467Z,17.40
2017-10-22T06:04:39.124Z,18.93
2017-10-22T06:07:05.765Z,23.07
2017-10-22T06:09:32.425Z,18.80
2017-10-22T06:11:59.066Z,17.47
2017-10-22T06:14:25.729Z,15.03
2017-10-22T06:16:52.467Z,16.57
2017-10-22T06:19:20.070Z,17.40
2017-10-22T06:21:46.733Z,15.57
2017-10-22T06:24:13.381Z,14.70
2017-10-22T06:26:41.495Z,15.63
2017-10-22T06:29:08.132Z,17.60
2017-10-22T06:31:34.792Z,17.10
2017-10-22T06:34:01.442Z,15.53
2017-10-22T06:36:28.108Z,14.33
2017-10-22T06:38:54.754Z,16.10
2017-10-22T06:41:21.392Z,17.80
2017-10-22T06:43:48.073Z,15.90
2017-10-22T06:46:14.713Z,16.30
2017-10-22T06:48:41.424Z,15.40
2017-10-22T06:51:08.059Z,16.80
2017-10-22T06:53:34.806Z,16.83
2017-10-22T06:56:01.513Z,15.20
2017-10-22T06:58:28.241Z,16.20
2017-10-22T07:00:54.941Z,16.37
2017-10-22T07:03:21.665Z,14.40
2017-10-22T07:05:48.300Z,15.30
2017-10-22T07:08:14.940Z,16.00
2017-10-22T07:10:41.605Z,16.60
2017-10-22T07:13:08.243Z,13.67
2017-10-22T07:15:35.018Z,13.53
2017-10-22T07:18:01.677Z,17.53
2017-10-22T07:20:28.328Z,13.60
2017-10-22T07:22:54.967Z,14.97
2017-10-22T07:25:21.660Z,13.63
2017-10-22T07:27:48.297Z,11.70
2017-10-22T07:30:15.049Z,14.10
2017-10-22T07:32:41.684Z,15.37
2017-10-22T07:35:08.459Z,12.30
2017-10-22T07:37:35.114Z,12.83
2017-10-22T07:40:01.858Z,15.77
2017-10-22T07:42:28.612Z,11.90
2017-10-22T07:44:55.245Z,14.37
2017-10-22T07:47:21.904Z,14.57
2017-10-22T07:49:48.541Z,13.20
2017-10-22T07:52:15.207Z,11.90
2017-10-22T07:54:41.840Z,13.80
2017-10-22T07:57:08.906Z,15.13
2017-10-22T07:59:36.389Z,13.33
2017-10-22T08:02:03.024Z,13.70
2017-10-22T08:04:29.683Z,13.17
2017-10-22T08:06:56.370Z,10.43
2017-10-22T08:09:23.101Z,15.40
2017-10-22T08:11:49.745Z,16.77
2017-10-22T08:14:16.608Z,14.57
2017-10-22T08:16:43.250Z,15.90
2017-10-22T08:19:10.004Z,11.10
2017-10-22T08:21:36.660Z,10.77
2017-10-22T08:24:03.413Z,11.83
2017-10-22T08:26:30.049Z,12.17
2017-10-22T08:28:56.741Z,13.30
2017-10-22T08:31:23.473Z,12.23
2017-10-22T08:33:50.127Z,12.37
2017-10-22T08:36:16.834Z,11.00
2017-10-22T08:38:43.524Z,11.90
2017-10-22T08:41:10.185Z,14.10
2017-10-22T08:43:36.851Z,12.10
2017-10-22T08:46:03.571Z,9.70
2017-10-22T08:48:30.229Z,12.20
2017-10-22T08:50:56.869Z,11.00
2017-10-22T08:53:23.522Z,10.80
2017-10-22T08:55:50.157Z,9.37
2017-10-22T08:58:16.818Z,12.37
2017-10-22T09:00:43.452Z,9.67
2017-10-22T09:03:10.102Z,9.60
2017-10-22T09:05:36.790Z,10.80
2017-10-22T09:08:03.441Z,11.70
2017-10-22T09:10:30.185Z,10.20
2017-10-22T09:12:56.820Z,9.47
2017-10-22T09:15:23.472Z,9.17
2017-10-22T09:17:50.196Z,10.43
2017-10-22T09:20:16.849Z,9.47
2017-10-22T09:22:44.114Z,8.20
2017-10-22T09:25:10.764Z,8.90
2017-10-22T09:27:37.745Z,11.10
2017-10-22T09:30:04.414Z,10.37
2017-10-22T09:32:31.077Z,9.60
2017-10-22T09:34:57.713Z,11.57
2017-10-22T09:37:24.369Z,9.13
2017-10-22T09:39:51.017Z,10.30
2017-10-22T09:42:17.678Z,13.10
2017-10-22T09:44:44.323Z,9.87
2017-10-22T09:47:10.977Z,9.73
2017-10-22T09:49:37.608Z,9.20
2017-10-22T09:52:04.266Z,8.50
2017-10-22T09:54:30.905Z,12.10
2017-10-22T09:56:57.568Z,11.07
2017-10-22T09:59:24.210Z,9.20
2017-10-22T10:01:50.876Z,9.60
2017-10-22T10:04:17.525Z,8.00
2017-10-22T10:06:44.161Z,11.47
2017-10-22T10:09:10.924Z,9.20
2017-10-22T10:11:37.554Z,9.53
2017-10-22T10:14:04.268Z,13.20
2017-10-22T10:16:30.913Z,9.60
2017-10-22T10:18:57.574Z,11.03
2017-10-22T10:21:24.231Z,7.43
2017-10-22T10:23:50.885Z,9.00
2017-10-22T10:26:17.530Z,9.47
2017-10-22T10:28:44.192Z,8.73
2017-10-22T10:31:10.824Z,9.30
2017-10-22T10:33:37.453Z,7.70
2017-10-22T10:36:04.100Z,8.43
2017-10-22T10:38:30.740Z,8.83
2017-10-22T10:40:57.803Z,10.30
2017-10-22T10:43:24.444Z,9.50
2017-10-22T10:45:51.153Z,8.97
2017-10-22T10:48:17.861Z,8.23
2017-10-22T10:50:44.525Z,11.47
2017-10-22T10:53:11.289Z,9.60
2017-10-22T10:55:37.929Z,9.17
2017-10-22T10:58:04.683Z,10.20
2017-10-22T11:00:31.352Z,8.70
2017-10-22T11:02:58.008Z,8.80
2017-10-22T11:05:24.641Z,8.20
2017-10-22T11:07:51.310Z,8.40
2017-10-22T11:10:17.945Z,7.67
2017-10-22T11:12:44.608Z,8.93
2017-10-22T11:15:11.251Z,10.43
2017-10-22T11:17:37.912Z,8.70
2017-10-22T11:20:04.624Z,6.80
2017-10-22T11:22:31.487Z,9.60
2017-10-22T11:24:58.125Z,8.67
2017-10-22T11:27:24.794Z,8.93
2017-10-22T11:29:51.424Z,8.60
2017-10-22T11:32:18.088Z,7.47
2017-10-22T11:34:44.741Z,9.43
2017-10-22T11:37:11.397Z,9.97
2017-10-22T11:39:38.133Z,9.13
2017-10-22T11:42:04.774Z,11.33
2017-10-22T11:44:31.430Z,6.77
2017-10-22T11:46:58.064Z,11.70
2017-10-22T11:49:24.713Z,6.83
2017-10-22T11:51:51.349Z,7.83
2017-10-22T11:54:18.046Z,5.10
2017-10-22T11:56:44.680Z,9.80
2017-10-22T11:59:12.109Z,5.80
2017-10-22T12:01:38.740Z,8.07
2017-10-22T12:04:05.378Z,5.60
2017-10-22T12:06:32.030Z,8.93
2017-10-22T12:08:58.677Z,9.70
2017-10-22T12:11:25.372Z,6.80
2017-10-22T12:13:52.081Z,6.17
2017-10-22T12:16:18.766Z,7.33
2017-10-22T12:18:45.405Z,10.30
2017-10-22T12:21:12.125Z,10.23
2017-10-22T12:23:38.784Z,8.63
2017-10-22T12:26:05.525Z,9.37
2017-10-22T12:28:32.189Z,11.00
2017-10-22T12:30:58.817Z,6.87
2017-10-22T12:33:25.477Z,7.53
2017-10-22T12:35:52.120Z,8.37
2017-10-22T12:38:19.061Z,6.03
2017-10-22T12:40:45.709Z,7.53
2017-10-22T12:43:12.360Z,7.80
2017-10-22T12:45:38.995Z,20.93
2017-10-22T12:48:05.657Z,8.73
2017-10-22T12:50:32.300Z,6.83
2017-10-22T12:52:58.937Z,8.20
2017-10-22T12:55:25.597Z,8.60
2017-10-22T12:57:52.240Z,9.00
2017-10-22T13:00:18.899Z,6.10
2017-10-22T13:02:45.537Z,8.53
2017-10-22T13:05:12.253Z,5.37
2017-10-22T13:07:38.893Z,29.37
2017-10-22T13:10:05.860Z,11.30
2017-10-22T13:12:32.496Z,7.40
2017-10-22T13:14:59.165Z,7.93
2017-10-22T13:17:25.805Z,11.37
2017-10-22T13:19:52.454Z,8.20
2017-10-22T13:22:19.201Z,7.73
2017-10-22T13:24:45.837Z,11.17
2017-10-22T13:27:12.720Z,13.77
2017-10-22T13:29:39.380Z,10.13
2017-10-22T13:32:06.046Z,12.93
2017-10-22T13:34:32.685Z,11.23
2017-10-22T13:36:59.408Z,6.80
2017-10-22T13:39:26.060Z,12.47
2017-10-22T13:41:52.716Z,6.97
2017-10-22T13:44:19.362Z,7.90
2017-10-22T13:46:46.031Z,9.00
2017-10-22T13:49:12.742Z,11.10
2017-10-22T13:51:39.379Z,11.40
2017-10-22T13:54:06.032Z,20.17
2017-10-22T13:56:32.665Z,14.20
2017-10-22T13:58:59.381Z,12.30
2017-10-22T14:01:26.021Z,14.23
2017-10-22T14:03:52.674Z,13.57
2017-10-22T14:06:19.312Z,11.27
2017-10-22T14:08:46.169Z,15.73
2017-10-22T14:11:12.812Z,15.03
2017-10-22T14:13:39.490Z,19.10
2017-10-22T14:16:06.131Z,27.70
2017-10-22T14:18:32.868Z,22.60
2017-10-22T14:20:59.641Z,23.13
2017-10-22T14:23:26.277Z,15.47
2017-10-22T14:25:52.929Z,15.10
2017-10-22T14:28:19.566Z,14.03
2017-10-22T14:30:46.221Z,16.40
2017-10-22T14:33:12.861Z,20.23
2017-10-22T14:35:39.536Z,14.30
2017-10-22T14:38:06.200Z,16.10
2017-10-22T14:40:32.872Z,13.70
2017-10-22T14:42:59.509Z,15.23
2017-10-22T14:45:26.150Z,15.73
2017-10-22T14:47:52.889Z,14.23
2017-10-22T14:50:19.546Z,12.20
2017-10-22T14:52:46.215Z,15.20
2017-10-22T14:55:12.950Z,22.93
2017-10-22T14:57:39.635Z,9.10
2017-10-22T15:00:06.273Z,19.87
2017-10-22T15:02:32.934Z,19.27
2017-10-22T15:04:59.569Z,17.87
2017-10-22T15:07:26.228Z,14.73
2017-10-22T15:09:52.861Z,13.27
2017-10-22T15:12:19.507Z,17.00
2017-10-22T15:14:46.185Z,18.47
2017-10-22T15:17:12.820Z,16.17
2017-10-22T15:19:39.469Z,14.07
2017-10-22T15:22:06.115Z,14.83
2017-10-22T15:24:32.773Z,14.63
2017-10-22T15:26:59.412Z,15.00
2017-10-22T15:29:26.097Z,16.40
2017-10-22T15:31:52.746Z,20.03
2017-10-22T15:34:19.404Z,12.03
2017-10-22T15:36:46.096Z,10.43
2017-10-22T15:39:12.765Z,14.93
2017-10-22T15:41:39.416Z,11.17
2017-10-22T15:44:06.057Z,11.00
2017-10-22T15:46:32.709Z,14.00
2017-10-22T15:48:59.482Z,16.80
2017-10-22T15:51:26.147Z,17.40
2017-10-22T15:53:52.780Z,8.90
2017-10-22T15:56:19.457Z,9.40
2017-10-22T15:58:46.092Z,12.20
2017-10-22T16:01:12.729Z,12.93
2017-10-22T16:03:39.381Z,4.40
2017-10-22T16:06:06.133Z,17.40
2017-10-22T16:08:32.788Z,15.03
2017-10-22T16:10:59.424Z,13.37
2017-10-22T16:13:26.193Z,13.50
2017-10-22T16:15:52.826Z,16.57
2017-10-22T16:18:19.478Z,13.33
2017-10-22T16:20:46.125Z,8.97
2017-10-22T16:23:12.880Z,18.30
2017-10-22T16:25:39.549Z,21.03
2017-10-22T16:28:06.185Z,23.73
2017-10-22T16:30:32.941Z,13.03
2017-10-22T16:32:59.597Z,14.93
2017-10-22T16:35:26.249Z,11.97
2017-10-22T16:37:52.880Z,17.27
2017-10-22T16:40:19.541Z,28.47
2017-10-22T16:42:46.189Z,30.97
2017-10-22T16:45:12.849Z,20.30
2017-10-22T16:47:39.493Z,24.67
2017-10-22T16:50:06.254Z,35.10
2017-10-22T16:52:33.002Z,23.03
2017-10-22T16:54:59.640Z,23.30
2017-10-22T16:57:26.506Z,25.13
2017-10-22T16:59:53.162Z,19.53
2017-10-22T17:02:19.817Z,28.87
2017-10-22T17:04:46.662Z,20.03
2017-10-22T17:07:13.413Z,28.37
2017-10-22T17:09:40.064Z,29.67
2017-10-22T17:12:06.730Z,21.80
2017-10-22T17:14:33.373Z,21.27
2017-10-22T17:17:00.145Z,20.37
2017-10-22T17:19:26.872Z,22.57
2017-10-22T17:21:53.513Z,21.20
2017-10-22T17:24:20.173Z,19.40
2017-10-22T17:26:46.821Z,22.57
2017-10-22T17:29:13.518Z,24.27
2017-10-22T17:31:40.224Z,20.20
2017-10-22T17:34:06.877Z,16.30
2017-10-22T17:36:33.516Z,20.10
2017-10-22T17:39:00.194Z,17.53
2017-10-22T17:41:26.931Z,20.20
2017-10-22T17:43:53.577Z,19.20
2017-10-22T17:46:20.233Z,18.73
2017-10-22T17:48:46.878Z,19.40
2017-10-22T17:51:13.584Z,18.80
2017-10-22T17:53:40.284Z,18.83
2017-10-22T17:56:06.942Z,21.07
2017-10-22T17:58:33.586Z,17.87
2017-10-22T18:01:00.352Z,21.40
2017-10-22T18:03:26.996Z,17.50
2017-10-22T18:05:53.634Z,16.83
2017-10-22T18:08:20.288Z,22.40
2017-10-22T18:10:46.937Z,20.07
2017-10-22T18:13:13.603Z,4.93
2017-10-22T18:15:40.245Z,11.50
2017-10-22T18:18:06.909Z,13.07
2017-10-22T18:20:33.544Z,16.80
2017-10-22T18:23:00.300Z,24.53
2017-10-22T18:25:26.945Z,266.67
2017-10-22T18:27:53.598Z,145.30
2017-10-22T18:30:20.282Z,110.03
2017-10-22T18:32:47.228Z,91.10
2017-10-22T18:35:13.897Z,87.07
2017-10-22T18:37:40.551Z,77.83
2017-10-22T18:40:07.213Z,85.57
2017-10-22T18:42:33.861Z,75.83
2017-10-22T18:45:00.518Z,66.03
2017-10-22T18:47:27.226Z,74.50
2017-10-22T18:49:53.901Z,67.60
2017-10-22T18:52:20.638Z,72.17
2017-10-22T18:54:47.508Z,64.47
2017-10-22T18:57:14.169Z,62.13
2017-10-22T18:59:40.880Z,63.30
2017-10-22T19:02:07.544Z,58.53
2017-10-22T19:04:34.184Z,63.20
2017-10-22T19:07:00.932Z,64.53
2017-10-22T19:09:27.650Z,75.93
2017-10-22T19:11:54.316Z,69.27
2017-10-22T19:14:20.960Z,57.80
2017-10-22T19:16:47.641Z,59.60
2017-10-22T19:19:14.286Z,66.23
2017-10-22T19:21:40.972Z,65.37
2017-10-22T19:24:07.621Z,57.67
2017-10-22T19:26:34.344Z,62.53
2017-10-22T19:29:01.106Z,60.80
2017-10-22T19:31:27.751Z,59.70
2017-10-22T19:33:54.413Z,64.10
2017-10-22T19:36:21.157Z,47.20
2017-10-22T19:38:47.822Z,53.40
2017-10-22T19:41:14.466Z,56.57
2017-10-22T19:43:41.127Z,59.50
2017-10-22T19:46:07.769Z,49.27
2017-10-22T19:48:35.333Z,54.03
2017-10-22T19:51:01.980Z,54.03
2017-10-22T19:53:28.642Z,58.30
2017-10-22T19:55:55.316Z,57.13
2017-10-22T19:58:21.954Z,49.53
2017-10-22T20:00:48.611Z,56.47
2017-10-22T20:03:15.270Z,52.40
2017-10-22T20:05:41.990Z,56.90
2017-10-22T20:08:08.749Z,46.03
2017-10-22T20:10:35.497Z,46.43
2017-10-22T20:13:02.251Z,51.67
2017-10-22T20:15:28.953Z,51.77
2017-10-22T20:17:55.648Z,53.20
2017-10-22T20:20:22.314Z,48.93
2017-10-22T20:22:49.071Z,51.17
2017-10-22T20:25:15.744Z,51.60
2017-10-22T20:27:42.451Z,43.73
2017-10-22T20:30:09.097Z,44.63
2017-10-22T20:32:35.756Z,51.97
2017-10-22T20:35:02.418Z,45.30
2017-10-22T20:37:29.164Z,45.20
2017-10-22T20:39:55.817Z,38.63
2017-10-22T20:42:22.481Z,50.53
2017-10-22T20:44:49.124Z,56.53
2017-10-22T20:47:15.784Z,66.20
2017-10-22T20:49:42.428Z,73.43
2017-10-22T20:52:09.069Z,62.37
2017-10-22T20:54:35.733Z,59.73
2017-10-22T20:57:02.377Z,63.47
2017-10-22T20:59:29.128Z,57.00
2017-10-22T21:01:55.777Z,54.37
2017-10-22T21:04:22.481Z,52.57
2017-10-22T21:06:49.192Z,55.90
2017-10-22T21:09:15.859Z,56.40
2017-10-22T21:11:42.508Z,62.07
2017-10-22T21:14:09.225Z,55.47
2017-10-22T21:16:35.888Z,58.87
2017-10-22T21:19:02.637Z,54.83
2017-10-22T21:21:29.389Z,54.30
2017-10-22T21:23:56.034Z,54.20
2017-10-22T21:26:22.793Z,44.60
2017-10-22T21:28:49.437Z,52.77
2017-10-22T21:31:16.201Z,46.63
2017-10-22T21:33:42.843Z,57.03
2017-10-22T21:36:09.603Z,45.87
2017-10-22T21:38:36.244Z,54.23
2017-10-22T21:41:02.912Z,48.10
2017-10-22T21:43:29.568Z,56.87
2017-10-22T21:45:56.209Z,48.97
2017-10-22T21:48:22.870Z,51.23
2017-10-22T21:50:49.518Z,43.93
2017-10-22T21:53:16.188Z,49.83
2017-10-22T21:55:42.832Z,47.70
2017-10-22T21:58:09.489Z,43.77
2017-10-22T22:00:36.135Z,48.53
2017-10-22T22:03:02.806Z,47.27
2017-10-22T22:05:29.446Z,54.07
2017-10-22T22:07:56.103Z,47.97
2017-10-22T22:10:22.750Z,46.20
2017-10-22T22:12:49.417Z,42.83
2017-10-22T22:15:16.061Z,46.80
2017-10-22T22:17:42.698Z,51.50
2017-10-22T22:20:09.369Z,45.17
2017-10-22T22:22:36.024Z,42.17
2017-10-22T22:25:02.681Z,48.10
2017-10-22T22:27:29.316Z,42.90
2017-10-22T22:29:55.983Z,40.20
2017-10-22T22:32:22.624Z,42.90
2017-10-22T22:34:49.290Z,43.97
2017-10-22T22:37:15.942Z,39.33
2017-10-22T22:39:42.601Z,39.63
2017-10-22T22:42:09.247Z,39.37
2017-10-22T22:44:35.925Z,43.37
2017-10-22T22:47:02.596Z,48.17
2017-10-22T22:49:29.237Z,44.60
2017-10-22T22:51:55.892Z,37.20
2017-10-22T22:54:22.528Z,34.27
2017-10-22T22:56:49.282Z,38.03
2017-10-22T22:59:15.925Z,37.13
2017-10-22T23:01:42.686Z,37.63
2017-10-22T23:04:09.337Z,33.80
2017-10-22T23:06:35.997Z,42.43
2017-10-22T23:09:02.637Z,37.20
2017-10-22T23:11:29.300Z,36.43
2017-10-22T23:13:55.940Z,33.37
2017-10-22T23:16:22.581Z,38.90
2017-10-22T23:18:49.237Z,36.97
2017-10-22T23:21:15.872Z,40.70
2017-10-22T23:23:42.540Z,38.73
2017-10-22T23:26:09.186Z,37.33
2017-10-22T23:28:38.845Z,37.93
2017-10-22T23:31:05.480Z,36.87
2017-10-22T23:33:32.132Z,29.80
2017-10-22T23:35:58.779Z,35.60
2017-10-22T23:38:25.457Z,34.40
2017-10-22T23:40:52.096Z,37.87
2017-10-22T23:43:18.816Z,35.60
2017-10-22T23:45:45.476Z,35.43
2017-10-22T23:48:12.216Z,31.27
2017-10-22T23:50:38.886Z,31.57
2017-10-22T23:53:05.628Z,32.77
2017-10-22T23:55:32.289Z,29.83
2017-10-22T23:57:58.933Z,31.10
